Time;durP1;ratioP1;P1;durP2;ratioP2;P2;SDS_P1;SDS_P2;PMS_P1;PMS_P2;Temp;Humidity;BMP_temperature;BMP_pressure;BME280_temperature;BME280_humidity;BME280_pressure;Samples;Min_cycle;Max_cycle;Signal;HPM_P1;HPM_P2
2023/07/05 00:01:29;;;;;;;;;;;;;;;24.72;66.94;97595.56;5093261;28;19947;-73
2023/07/05 00:03:55;;;;;;;;;;;;;;;24.68;67.69;97597.44;5093263;28;20333;-73
2023/07/05 00:06:23;;;;;;;;;;;;;;;24.67;68.11;97593.09;5088009;28;19960;-73
2023/07/05 00:08:49;;;;;;;;;;;;;;;24.56;69.79;97584.72;5089597;28;19975;-73
2023/07/05 00:11:16;;;;;;;;;;;;;;;24.01;74.26;97585.16;5085177;28;19948;-72
2023/07/05 00:13:42;;;;;;;;;;;;;;;23.95;76.20;97583.88;5093333;28;19992;-72
2023/07/05 00:16:09;;;;;;;;;;;;;;;24.03;76.50;97578.19;5092998;28;19971;-72
2023/07/05 00:18:36;;;;;;;;;;;;;;;24.27;75.35;97582.59;5085491;28;20020;-73
2023/07/05 00:21:03;;;;;;;;;;;;;;;24.23;75.19;97576.31;5091179;28;19928;-73
2023/07/05 00:23:32;;;;;;;;;;;;;;;24.31;74.47;97569.81;5093233;28;19946;-73
2023/07/05 00:25:58;;;;;;;;;;;;;;;24.32;74.39;97574.13;5091949;28;19936;-72
2023/07/05 00:28:25;;;;;;;;;;;;;;;24.32;74.31;97560.50;5093036;28;19935;-72
2023/07/05 00:30:51;;;;;;;;;;;;;;;24.39;74.19;97554.34;5092798;28;19988;-72
2023/07/05 00:33:18;;;;;;;;;;;;;;;24.13;75.64;97544.13;5092878;28;19925;-72
2023/07/05 00:35:48;;;;;;;;;;;;;;;23.99;77.09;97551.97;5092965;28;20370;-72
2023/07/05 00:38:15;;;;;;;;;;;;;;;24.43;74.28;97558.75;5093272;28;19925;-73
2023/07/05 00:40:43;;;;;;;;;;;;;;;24.66;72.71;97551.34;5092968;28;19966;-72
2023/07/05 00:43:09;;;;;;;;;;;;;;;24.66;72.36;97540.44;5093289;28;19988;-72
2023/07/05 00:45:43;;;;;;;;;;;;;;;24.69;72.04;97537.00;5085741;28;19976;-72
2023/07/05 00:48:13;;;;;;;;;;;;;;;25.02;70.06;97546.53;5099054;28;19950;-72
2023/07/05 00:50:41;;;;;;;;;;;;;;;24.83;70.55;97543.88;5095279;28;19925;-73
2023/07/05 00:53:09;;;;;;;;;;;;;;;24.82;70.64;97542.31;5084498;28;19997;-72
2023/07/05 00:55:35;;;;;;;;;;;;;;;24.54;72.08;97543.34;5083937;28;19921;-73
2023/07/05 00:58:04;;;;;;;;;;;;;;;23.94;76.48;97552.28;5093285;28;19963;-72
2023/07/05 01:00:31;;;;;;;;;;;;;;;23.54;80.98;97542.47;5092645;28;19996;-72
2023/07/05 01:02:59;;;;;;;;;;;;;;;23.35;84.51;97547.06;5092537;28;19952;-72
2023/07/05 01:05:26;;;;;;;;;;;;;;;23.43;83.72;97543.38;5092490;28;19980;-73
2023/07/05 01:07:52;;;;;;;;;;;;;;;23.15;85.83;97551.66;5082732;28;19925;-73
2023/07/05 01:10:20;;;;;;;;;;;;;;;23.83;81.12;97560.22;5092396;28;19984;-73
2023/07/05 01:12:49;;;;;;;;;;;;;;;24.12;78.36;97564.38;5092103;28;19963;-73
2023/07/05 01:15:19;;;;;;;;;;;;;;;24.13;77.88;97566.75;5092221;28;19924;-73
2023/07/05 01:17:52;;;;;;;;;;;;;;;24.36;76.45;97558.59;5092197;28;19956;-73
2023/07/05 01:20:32;;;;;;;;;;;;;;;23.89;78.51;97555.31;5084209;28;19967;-73
2023/07/05 01:23:17;;;;;;;;;;;;;;;23.94;78.61;97553.06;5092218;28;19951;-73
2023/07/05 01:26:04;;;;;;;;;;;;;;;24.21;76.84;97550.50;5091625;28;19939;-73
2023/07/05 01:28:40;;;;;;;;;;;;;;;24.08;76.24;97549.81;5085396;28;19931;-73
2023/07/05 01:31:17;;;;;;;;;;;;;;;24.01;76.36;97546.97;5091723;28;19991;-72
2023/07/05 01:33:49;;;;;;;;;;;;;;;24.44;74.49;97554.88;5091781;28;19928;-72
2023/07/05 01:36:16;;;;;;;;;;;;;;;24.54;73.13;97562.44;5083145;28;19925;-72
2023/07/05 01:38:42;;;;;;;;;;;;;;;23.82;75.71;97555.16;5091751;28;20468;-72
2023/07/05 01:41:09;;;;;;;;;;;;;;;24.05;76.24;97566.91;5091766;28;19924;-72
2023/07/05 01:43:37;;;;;;;;;;;;;;;24.17;75.44;97558.63;5091468;28;19925;-72
2023/07/05 01:46:24;;;;;;;;;;;;;;;24.48;73.53;97565.88;5081906;28;19928;-72
2023/07/05 01:49:01;;;;;;;;;;;;;;;24.63;71.97;97576.66;5081403;28;19984;-72
2023/07/05 01:51:32;;;;;;;;;;;;;;;24.56;72.16;97573.81;5086195;28;19996;-73
2023/07/05 01:54:01;;;;;;;;;;;;;;;24.43;72.29;97569.66;5090928;28;19925;-72
2023/07/05 01:56:32;;;;;;;;;;;;;;;23.71;75.95;97549.44;5091100;28;19925;-72
2023/07/05 01:59:01;;;;;;;;;;;;;;;23.31;81.46;97560.59;5091091;28;19924;-72
2023/07/05 02:01:28;;;;;;;;;;;;;;;22.60;88.38;97567.00;5091182;28;19928;-72
2023/07/05 02:03:56;;;;;;;;;;;;;;;22.70;88.47;97556.75;5090939;28;19935;-72
2023/07/05 02:06:24;;;;;;;;;;;;;;;22.25;92.30;97551.66;5090962;28;19925;-72
2023/07/05 02:08:51;;;;;;;;;;;;;;;22.48;90.95;97548.00;5090801;28;19952;-72
2023/07/05 02:11:17;;;;;;;;;;;;;;;23.52;83.92;97569.28;5082580;28;20369;-72
2023/07/05 02:13:43;;;;;;;;;;;;;;;23.94;79.80;97582.28;5090984;28;19952;-72
2023/07/05 02:16:10;;;;;;;;;;;;;;;24.15;77.82;97580.81;5090563;28;19952;-72
2023/07/05 02:18:36;;;;;;;;;;;;;;;23.98;77.58;97574.97;5082682;28;19932;-72
2023/07/05 02:21:02;;;;;;;;;;;;;;;24.10;77.24;97577.56;5085414;28;19924;-72
2023/07/05 02:23:30;;;;;;;;;;;;;;;24.26;75.82;97593.88;5080858;28;19969;-72
2023/07/05 02:26:05;;;;;;;;;;;;;;;24.21;75.54;97575.84;5090157;28;19931;-72
2023/07/05 02:28:31;;;;;;;;;;;;;;;24.26;75.17;97570.13;5090578;28;19932;-72
2023/07/05 02:30:57;;;;;;;;;;;;;;;24.17;75.63;97561.34;5080730;28;19992;-72
2023/07/05 02:33:24;;;;;;;;;;;;;;;23.70;78.61;97555.28;5090311;28;19934;-72
2023/07/05 02:35:50;;;;;;;;;;;;;;;23.91;78.03;97561.97;5080690;28;19932;-72
2023/07/05 02:38:17;;;;;;;;;;;;;;;23.66;79.48;97552.47;5080898;28;19948;-72
2023/07/05 02:40:48;;;;;;;;;;;;;;;23.34;81.47;97551.72;5090365;28;19968;-72
2023/07/05 02:43:15;;;;;;;;;;;;;;;23.21;83.82;97544.03;5090235;28;19963;-72
2023/07/05 02:45:42;;;;;;;;;;;;;;;23.63;81.13;97543.06;5090336;28;20015;-73
2023/07/05 02:48:08;;;;;;;;;;;;;;;23.60;79.77;97537.53;5089495;28;19952;-73
2023/07/05 02:50:38;;;;;;;;;;;;;;;23.27;83.07;97529.78;5088581;28;19929;-73
2023/07/05 02:53:04;;;;;;;;;;;;;;;23.12;84.43;97523.19;5090117;28;20248;-73
2023/07/05 02:55:31;;;;;;;;;;;;;;;22.91;86.21;97511.78;5090363;28;19932;-73
2023/07/05 02:58:01;;;;;;;;;;;;;;;23.15;85.03;97521.69;5090510;28;19924;-73
2023/07/05 03:00:29;;;;;;;;;;;;;;;23.05;85.95;97506.69;5090841;28;19956;-72
2023/07/05 03:02:55;;;;;;;;;;;;;;;22.38;92.20;97487.88;5095508;28;19920;-72
2023/07/05 03:05:22;;;;;;;;;;;;;;;22.15;95.08;97495.03;5097172;28;19923;-72
2023/07/05 03:07:48;;;;;;;;;;;;;;;22.28;93.48;97504.72;5097155;28;19939;-72
2023/07/05 03:10:14;;;;;;;;;;;;;;;22.66;90.63;97506.88;5092502;28;19988;-73
2023/07/05 03:12:41;;;;;;;;;;;;;;;22.22;94.96;97493.28;5090379;28;19924;-73
2023/07/05 03:15:09;;;;;;;;;;;;;;;21.84;100.00;97495.72;5090424;28;19946;-74
2023/07/05 03:17:36;;;;;;;;;;;;;;;22.03;99.71;97485.00;5090740;28;19924;-72
2023/07/05 03:20:02;;;;;;;;;;;;;;;21.91;100.00;97488.56;5091201;28;19931;-72
2023/07/05 03:22:29;;;;;;;;;;;;;;;21.29;100.00;97486.34;5086248;28;19959;-72
2023/07/05 03:24:55;;;;;;;;;;;;;;;21.22;100.00;97497.00;5087810;28;20011;-73
2023/07/05 03:27:21;;;;;;;;;;;;;;;22.49;98.74;97502.53;5090547;28;19931;-73
2023/07/05 03:29:48;;;;;;;;;;;;;;;23.17;89.99;97519.41;5080786;28;19948;-72
2023/07/05 03:32:16;;;;;;;;;;;;;;;22.67;94.14;97511.19;5090415;28;20014;-73
2023/07/05 03:34:42;;;;;;;;;;;;;;;21.39;100.00;97502.16;5090502;28;19974;-73
2023/07/05 03:37:09;;;;;;;;;;;;;;;20.82;100.00;97504.25;5090361;28;19924;-72
2023/07/05 03:39:35;;;;;;;;;;;;;;;20.39;100.00;97512.91;5090410;28;20011;-73
2023/07/05 03:42:01;;;;;;;;;;;;;;;20.34;100.00;97502.25;5090379;28;19988;-71
2023/07/05 03:44:28;;;;;;;;;;;;;;;21.33;100.00;97489.97;5084765;28;19956;-73
2023/07/05 03:46:54;;;;;;;;;;;;;;;21.18;100.00;97487.94;5087960;28;19936;-73
2023/07/05 03:49:22;;;;;;;;;;;;;;;21.62;100.00;97485.38;5091246;28;19924;-72
2023/07/05 03:51:48;;;;;;;;;;;;;;;21.86;100.00;97491.50;5090748;28;19985;-73
2023/07/05 03:54:15;;;;;;;;;;;;;;;21.92;100.00;97489.34;5090380;28;19928;-72
2023/07/05 03:56:41;;;;;;;;;;;;;;;22.42;98.34;97492.28;5090358;28;19955;-72
2023/07/05 03:59:07;;;;;;;;;;;;;;;22.91;94.38;97497.38;5091194;28;19951;-72
2023/07/05 04:01:34;;;;;;;;;;;;;;;22.99;92.23;97501.88;5093619;28;19924;-72
2023/07/05 04:04:01;;;;;;;;;;;;;;;23.08;91.15;97505.19;5093565;28;19925;-72
2023/07/05 04:06:30;;;;;;;;;;;;;;;21.97;100.00;97508.16;5087288;28;19970;-72
2023/07/05 04:08:57;;;;;;;;;;;;;;;21.83;100.00;97496.84;5090739;28;19968;-72
2023/07/05 04:11:23;;;;;;;;;;;;;;;21.69;100.00;97502.69;5083804;28;19968;-72
2023/07/05 04:13:50;;;;;;;;;;;;;;;21.43;100.00;97494.94;5093406;28;20030;-73
2023/07/05 04:18:58;;;;;;;;;;;;;;;21.54;100.00;97492.50;5093203;28;19925;-73
2023/07/05 04:21:25;;;;;;;;;;;;;;;21.89;100.00;97498.19;5093246;28;19983;-73
2023/07/05 04:23:52;;;;;;;;;;;;;;;22.54;97.85;97503.06;5093113;28;19995;-73
2023/07/05 04:26:19;;;;;;;;;;;;;;;22.83;94.75;97514.69;5093227;28;19952;-73
2023/07/05 04:28:46;;;;;;;;;;;;;;;22.64;96.40;97511.84;5093147;28;20023;-74
2023/07/05 04:31:15;;;;;;;;;;;;;;;22.78;95.38;97518.47;5092929;28;20340;-73
2023/07/05 04:33:41;;;;;;;;;;;;;;;22.05;100.00;97528.97;5092956;28;19924;-73
2023/07/05 04:36:08;;;;;;;;;;;;;;;21.86;100.00;97526.84;5093373;28;19958;-73
2023/07/05 04:38:34;;;;;;;;;;;;;;;22.07;100.00;97534.81;5093054;28;19924;-73
2023/07/05 04:41:02;;;;;;;;;;;;;;;22.38;98.92;97526.75;5092830;28;19966;-73
2023/07/05 04:43:28;;;;;;;;;;;;;;;22.93;93.75;97520.38;5092716;28;19959;-73
2023/07/05 04:45:56;;;;;;;;;;;;;;;22.92;94.03;97531.66;5092948;28;20015;-74
2023/07/05 04:48:23;;;;;;;;;;;;;;;22.90;94.10;97536.66;5087129;28;19974;-74
2023/07/05 04:50:52;;;;;;;;;;;;;;;21.99;100.00;97544.72;5088772;28;19925;-74
2023/07/05 04:53:19;;;;;;;;;;;;;;;21.71;100.00;97541.16;5084683;28;19924;-72
2023/07/05 04:55:45;;;;;;;;;;;;;;;21.28;100.00;97530.94;5092469;28;20578;-73
2023/07/05 04:58:14;;;;;;;;;;;;;;;21.01;100.00;97528.91;5092440;28;19928;-72
2023/07/05 05:00:41;;;;;;;;;;;;;;;20.91;100.00;97524.72;5092423;28;19936;-71
2023/07/05 05:03:07;;;;;;;;;;;;;;;20.75;100.00;97531.13;5092609;28;19931;-73
2023/07/05 05:05:51;;;;;;;;;;;;;;;20.86;100.00;97534.97;5092155;28;19924;-72
2023/07/05 05:08:19;;;;;;;;;;;;;;;20.62;100.00;97548.53;5085209;28;19936;-71
2023/07/05 05:10:45;;;;;;;;;;;;;;;20.70;100.00;97547.66;5091997;28;19974;-72
2023/07/05 05:13:13;;;;;;;;;;;;;;;20.51;100.00;97552.81;5092537;28;19928;-72
2023/07/05 05:15:40;;;;;;;;;;;;;;;20.41;100.00;97543.19;5092339;28;19924;-72
2023/07/05 05:18:07;;;;;;;;;;;;;;;20.24;100.00;97548.75;5092672;28;19925;-72
2023/07/05 05:20:33;;;;;;;;;;;;;;;20.61;100.00;97560.53;5092804;28;19926;-72
2023/07/05 05:23:00;;;;;;;;;;;;;;;21.85;100.00;97551.66;5083095;28;20511;-72
2023/07/05 05:25:27;;;;;;;;;;;;;;;21.68;100.00;97554.66;5092384;28;19924;-72
2023/07/05 05:27:55;;;;;;;;;;;;;;;21.97;100.00;97559.81;5082581;28;20143;-72
2023/07/05 05:30:23;;;;;;;;;;;;;;;22.40;100.00;97562.59;5092809;28;19946;-72
2023/07/05 05:32:49;;;;;;;;;;;;;;;22.79;98.79;97576.44;5092804;28;19966;-72
2023/07/05 05:35:15;;;;;;;;;;;;;;;22.56;100.00;97571.53;5083583;28;19928;-72
2023/07/05 05:37:42;;;;;;;;;;;;;;;22.26;100.00;97577.69;5096588;28;19995;-72
2023/07/05 05:40:09;;;;;;;;;;;;;;;21.92;100.00;97585.31;5098506;28;19920;-72
2023/07/05 05:42:36;;;;;;;;;;;;;;;21.93;100.00;97589.63;5098845;28;19925;-72
2023/07/05 05:45:03;;;;;;;;;;;;;;;21.77;100.00;97598.78;5098794;28;19912;-72
2023/07/05 05:47:31;;;;;;;;;;;;;;;21.81;100.00;97605.13;5089510;28;19991;-72
2023/07/05 05:49:58;;;;;;;;;;;;;;;22.46;100.00;97609.38;5097814;28;19966;-72
2023/07/05 05:52:24;;;;;;;;;;;;;;;22.80;100.00;97608.78;5097184;28;19924;-72
2023/07/05 05:54:51;;;;;;;;;;;;;;;23.07;98.22;97618.00;5082593;28;20269;-71
2023/07/05 05:57:17;;;;;;;;;;;;;;;23.30;95.60;97632.59;5083461;28;19924;-72
2023/07/05 05:59:44;;;;;;;;;;;;;;;23.45;93.73;97648.19;5091437;28;19956;-72
2023/07/05 06:02:10;;;;;;;;;;;;;;;23.51;94.40;97651.44;5091156;28;19924;-72
2023/07/05 06:04:38;;;;;;;;;;;;;;;23.58;95.09;97654.34;5084194;28;19932;-72
2023/07/05 06:07:04;;;;;;;;;;;;;;;23.53;97.50;97658.09;5103962;28;19997;-72
2023/07/05 06:09:37;;;;;;;;;;;;;;;23.58;97.09;97668.72;5091276;28;19951;-72
2023/07/05 06:12:03;;;;;;;;;;;;;;;23.59;98.40;97677.69;5090859;28;19959;-72
2023/07/05 06:14:30;;;;;;;;;;;;;;;23.57;100.00;97693.63;5089887;28;19967;-72
2023/07/05 06:16:56;;;;;;;;;;;;;;;23.57;100.00;97690.91;5091279;28;19939;-73
2023/07/05 06:19:23;;;;;;;;;;;;;;;23.55;100.00;97699.41;5091391;28;19947;-73
2023/07/05 06:21:51;;;;;;;;;;;;;;;23.59;98.53;97694.06;5090872;28;20011;-72
2023/07/05 06:24:17;;;;;;;;;;;;;;;23.76;94.21;97690.97;5081375;28;19924;-73
2023/07/05 06:26:44;;;;;;;;;;;;;;;23.46;97.35;97712.44;5091109;28;20006;-73
2023/07/05 06:29:10;;;;;;;;;;;;;;;23.56;97.21;97701.00;5091062;28;19995;-73
2023/07/05 06:31:36;;;;;;;;;;;;;;;23.52;97.05;97694.66;5083538;28;19925;-73
2023/07/05 06:34:03;;;;;;;;;;;;;;;23.53;97.46;97707.16;5089121;28;19987;-72
2023/07/05 06:36:29;;;;;;;;;;;;;;;23.53;97.85;97718.06;5081746;28;19925;-73
2023/07/05 06:38:57;;;;;;;;;;;;;;;23.39;97.18;97720.44;5092258;28;19936;-73
2023/07/05 06:41:23;;;;;;;;;;;;;;;23.14;98.72;97732.59;5091666;28;20011;-73
2023/07/05 06:43:50;;;;;;;;;;;;;;;23.22;97.43;97731.63;5091629;28;20001;-72
2023/07/05 06:46:16;;;;;;;;;;;;;;;23.36;99.49;97715.69;5091582;28;20007;-72
2023/07/05 06:48:43;;;;;;;;;;;;;;;23.44;99.33;97717.44;5091211;28;20011;-72
2023/07/05 06:51:09;;;;;;;;;;;;;;;23.47;99.26;97711.31;5090981;28;20002;-73
2023/07/05 06:53:35;;;;;;;;;;;;;;;23.39;100.00;97704.09;5090636;28;19928;-73
2023/07/05 06:56:03;;;;;;;;;;;;;;;23.31;100.00;97705.00;5090572;28;19925;-73
2023/07/05 06:58:30;;;;;;;;;;;;;;;22.97;100.00;97694.78;5090603;28;19981;-72
2023/07/05 07:00:56;;;;;;;;;;;;;;;23.07;100.00;97684.16;5090346;28;19958;-72
2023/07/05 07:03:23;;;;;;;;;;;;;;;23.19;100.00;97690.69;5090403;28;19920;-73
2023/07/05 07:05:51;;;;;;;;;;;;;;;23.34;100.00;97693.41;5090581;28;19935;-73
2023/07/05 07:08:18;;;;;;;;;;;;;;;23.44;100.00;97698.38;5082473;28;20282;-71
2023/07/05 07:10:44;;;;;;;;;;;;;;;23.36;100.00;97707.50;5090553;28;19997;-72
2023/07/05 07:13:12;;;;;;;;;;;;;;;23.39;100.00;97695.09;5090261;28;20015;-72
2023/07/05 07:15:38;;;;;;;;;;;;;;;23.34;100.00;97687.97;5090455;28;19999;-72
2023/07/05 07:18:04;;;;;;;;;;;;;;;23.47;100.00;97675.88;5090255;28;19936;-72
2023/07/05 07:20:31;;;;;;;;;;;;;;;23.32;100.00;97684.81;5090243;28;19984;-72
2023/07/05 07:22:58;;;;;;;;;;;;;;;23.28;100.00;97683.91;5090469;28;19946;-72
2023/07/05 07:25:24;;;;;;;;;;;;;;;23.39;100.00;97685.03;5090135;28;20035;-70
2023/07/05 07:27:50;;;;;;;;;;;;;;;23.47;100.00;97675.06;5090319;28;19925;-73
2023/07/05 07:30:18;;;;;;;;;;;;;;;23.66;100.00;97669.69;5082063;28;19960;-73
2023/07/05 07:32:45;;;;;;;;;;;;;;;23.69;100.00;97666.25;5090408;28;20004;-71
2023/07/05 07:35:11;;;;;;;;;;;;;;;23.83;100.00;97658.41;5093185;28;20727;-72
2023/07/05 07:37:38;;;;;;;;;;;;;;;23.81;100.00;97647.06;5086270;28;19925;-72
2023/07/05 07:40:06;;;;;;;;;;;;;;;23.04;100.00;97643.22;5092313;28;19970;-72
2023/07/05 07:42:32;;;;;;;;;;;;;;;23.02;100.00;97642.78;5093742;28;19925;-71
2023/07/05 07:44:59;;;;;;;;;;;;;;;22.57;100.00;97643.91;5094360;28;19974;-72
2023/07/05 07:47:26;;;;;;;;;;;;;;;22.89;100.00;97638.53;5093711;28;19924;-72
2023/07/05 07:49:53;;;;;;;;;;;;;;;23.15;100.00;97638.06;5093476;28;19933;-72
2023/07/05 07:52:19;;;;;;;;;;;;;;;23.02;100.00;97640.88;5093369;28;19985;-72
2023/07/05 07:54:46;;;;;;;;;;;;;;;23.40;100.00;97634.00;5093729;28;19979;-72
2023/07/05 07:57:12;;;;;;;;;;;;;;;23.41;100.00;97632.88;5093503;28;19959;-71
2023/07/05 07:59:41;;;;;;;;;;;;;;;23.20;100.00;97624.16;5093752;28;19924;-71
2023/07/05 08:02:11;;;;;;;;;;;;;;;23.05;100.00;97629.25;5093625;28;20491;-71
2023/07/05 08:04:40;;;;;;;;;;;;;;;23.19;100.00;97628.81;5093690;28;19988;-72
2023/07/05 08:07:06;;;;;;;;;;;;;;;23.35;100.00;97635.06;5093345;28;19929;-72
2023/07/05 08:09:33;;;;;;;;;;;;;;;23.43;100.00;97631.38;5093604;28;19925;-72
2023/07/05 08:11:59;;;;;;;;;;;;;;;22.97;100.00;97634.84;5083434;28;19964;-72
2023/07/05 08:14:25;;;;;;;;;;;;;;;22.71;100.00;97640.81;5087080;28;19932;-72
2023/07/05 08:16:52;;;;;;;;;;;;;;;21.87;100.00;97653.50;5085294;28;19952;-72
2023/07/05 08:19:20;;;;;;;;;;;;;;;21.72;100.00;97647.97;5083737;28;19995;-72
2023/07/05 08:21:48;;;;;;;;;;;;;;;22.15;100.00;97647.34;5092899;28;19928;-71
2023/07/05 08:24:16;;;;;;;;;;;;;;;22.69;100.00;97651.22;5092662;28;19925;-71
2023/07/05 08:26:42;;;;;;;;;;;;;;;22.10;100.00;97648.38;5084452;28;19924;-71
2023/07/05 08:29:09;;;;;;;;;;;;;;;22.14;100.00;97653.91;5091598;28;19956;-72
2023/07/05 08:31:35;;;;;;;;;;;;;;;22.16;100.00;97652.41;5092860;28;19929;-72
2023/07/05 08:34:02;;;;;;;;;;;;;;;22.17;100.00;97651.28;5092826;28;19932;-73
2023/07/05 08:36:32;;;;;;;;;;;;;;;22.01;100.00;97653.16;5086478;28;19985;-72
2023/07/05 08:39:03;;;;;;;;;;;;;;;22.00;100.00;97651.56;5090626;28;20022;-73
2023/07/05 08:41:35;;;;;;;;;;;;;;;21.89;100.00;97645.00;5093025;28;19932;-72
2023/07/05 08:44:06;;;;;;;;;;;;;;;21.81;100.00;97646.72;5092748;28;19947;-72
2023/07/05 08:46:33;;;;;;;;;;;;;;;21.44;100.00;97654.09;5091878;28;19924;-72
2023/07/05 08:49:01;;;;;;;;;;;;;;;21.32;100.00;97643.19;5092589;28;19952;-72
2023/07/05 08:51:28;;;;;;;;;;;;;;;21.74;100.00;97637.53;5092631;28;19996;-72
2023/07/05 08:53:57;;;;;;;;;;;;;;;23.45;100.00;97634.56;5083464;28;19960;-72
2023/07/05 08:56:27;;;;;;;;;;;;;;;24.12;100.00;97636.09;5093341;28;19931;-72
2023/07/05 08:58:57;;;;;;;;;;;;;;;23.60;100.00;97646.56;5083685;28;19959;-72
2023/07/05 09:01:26;;;;;;;;;;;;;;;23.20;100.00;97640.50;5093582;28;19935;-73
2023/07/05 09:03:52;;;;;;;;;;;;;;;22.99;100.00;97643.50;5093209;28;19962;-73
2023/07/05 09:06:22;;;;;;;;;;;;;;;22.95;100.00;97642.59;5093502;28;19924;-71
2023/07/05 09:09:08;;;;;;;;;;;;;;;22.50;100.00;97640.97;5093109;28;19946;-72
2023/07/05 09:11:43;;;;;;;;;;;;;;;22.50;100.00;97638.25;5087490;28;19924;-72
2023/07/05 09:14:14;;;;;;;;;;;;;;;22.50;100.00;97632.81;5083417;28;19964;-72
2023/07/05 09:16:42;;;;;;;;;;;;;;;22.48;100.00;97628.84;5092409;28;19925;-72
2023/07/05 09:19:14;;;;;;;;;;;;;;;22.58;100.00;97625.63;5092551;28;19924;-72
2023/07/05 09:21:43;;;;;;;;;;;;;;;22.70;100.00;97622.09;5092084;28;19980;-72
2023/07/05 09:24:13;;;;;;;;;;;;;;;22.93;100.00;97617.66;5092376;28;19976;-72
2023/07/05 09:26:43;;;;;;;;;;;;;;;23.02;100.00;97610.91;5092027;28;19974;-72
2023/07/05 09:29:15;;;;;;;;;;;;;;;23.30;100.00;97615.47;5091821;28;19931;-72
2023/07/05 09:31:42;;;;;;;;;;;;;;;23.60;100.00;97603.75;5091787;28;19931;-72
2023/07/05 09:34:16;;;;;;;;;;;;;;;23.88;100.00;97600.88;5091674;28;20366;-72
2023/07/05 09:36:43;;;;;;;;;;;;;;;24.86;100.00;97601.28;5091563;28;20030;-72
2023/07/05 09:39:17;;;;;;;;;;;;;;;25.42;100.00;97615.13;5091664;28;19924;-72
2023/07/05 09:41:46;;;;;;;;;;;;;;;25.54;99.93;97614.94;5091591;28;20354;-72
2023/07/05 09:44:13;;;;;;;;;;;;;;;25.64;96.78;97619.78;5091954;28;19944;-72
2023/07/05 09:46:39;;;;;;;;;;;;;;;25.94;92.03;97605.34;5092020;28;19924;-72
2023/07/05 09:49:11;;;;;;;;;;;;;;;26.08;88.79;97611.81;5091675;28;19925;-73
2023/07/05 09:51:38;;;;;;;;;;;;;;;26.28;88.38;97607.00;5091996;28;19928;-73
2023/07/05 09:54:07;;;;;;;;;;;;;;;26.42;85.99;97604.44;5082800;28;19925;-71
2023/07/05 09:56:34;;;;;;;;;;;;;;;26.46;85.51;97602.50;5092790;28;19924;-72
2023/07/05 09:59:08;;;;;;;;;;;;;;;26.51;84.43;97599.47;5092737;28;19924;-72
2023/07/05 10:01:36;;;;;;;;;;;;;;;26.45;85.42;97584.53;5092552;28;19932;-73
2023/07/05 10:04:05;;;;;;;;;;;;;;;26.51;85.29;97584.97;5092444;28;19935;-72
2023/07/05 10:06:32;;;;;;;;;;;;;;;26.57;84.57;97587.00;5092308;28;20433;-72
2023/07/05 10:09:02;;;;;;;;;;;;;;;26.69;83.73;97583.19;5092771;28;19931;-72
2023/07/05 10:11:33;;;;;;;;;;;;;;;26.66;83.90;97573.78;5087011;28;19924;-72
2023/07/05 10:14:20;;;;;;;;;;;;;;;26.75;82.99;97570.75;5098131;28;19931;-71
2023/07/05 10:16:49;;;;;;;;;;;;;;;26.88;82.02;97568.53;5097590;28;19924;-71
2023/07/05 10:19:19;;;;;;;;;;;;;;;26.81;82.61;97559.09;5097215;28;19951;-73
2023/07/05 10:21:47;;;;;;;;;;;;;;;27.03;80.66;97575.72;5093298;28;20386;-72
2023/07/05 10:24:14;;;;;;;;;;;;;;;26.98;79.96;97590.56;5091361;28;19931;-72
2023/07/05 10:26:42;;;;;;;;;;;;;;;27.13;77.72;97575.81;5083889;28;19950;-72
2023/07/05 10:29:10;;;;;;;;;;;;;;;27.10;76.35;97584.00;5093285;28;19936;-72
2023/07/05 10:31:36;;;;;;;;;;;;;;;26.96;77.32;97564.69;5096976;28;19920;-73
2023/07/05 10:34:16;;;;;;;;;;;;;;;27.07;76.86;97558.16;5086322;28;19946;-72
2023/07/05 10:36:44;;;;;;;;;;;;;;;27.20;75.60;97564.13;5091247;28;19924;-72
2023/07/05 10:39:11;;;;;;;;;;;;;;;27.22;74.78;97556.31;5091099;28;19935;-72
2023/07/05 10:41:40;;;;;;;;;;;;;;;27.23;75.37;97558.66;5090888;28;19925;-72
2023/07/05 10:44:08;;;;;;;;;;;;;;;27.32;73.95;97586.56;5081607;28;19947;-72
2023/07/05 10:46:36;;;;;;;;;;;;;;;27.14;74.84;97631.44;5090938;28;19955;-72
2023/07/05 10:49:04;;;;;;;;;;;;;;;26.75;71.29;97664.69;5091514;28;19999;-72
2023/07/05 10:51:35;;;;;;;;;;;;;;;26.10;76.50;97718.16;5091323;28;19930;-72
2023/07/05 10:54:04;;;;;;;;;;;;;;;25.85;84.49;97753.34;5091171;28;19925;-72
2023/07/05 10:56:32;;;;;;;;;;;;;;;25.94;89.88;97778.53;5090907;28;19924;-72
2023/07/05 10:59:01;;;;;;;;;;;;;;;25.57;93.54;97756.41;5090914;28;19939;-72
2023/07/05 11:01:30;;;;;;;;;;;;;;;25.33;97.29;97764.94;5081289;28;19925;-72
2023/07/05 11:03:59;;;;;;;;;;;;;;;24.70;100.00;97748.84;5090849;28;19924;-72
2023/07/05 11:06:27;;;;;;;;;;;;;;;24.93;100.00;97739.97;5090967;28;19988;-72
2023/07/05 11:08:57;;;;;;;;;;;;;;;25.20;100.00;97734.25;5082262;28;19925;-72
2023/07/05 11:11:25;;;;;;;;;;;;;;;24.13;100.00;97727.72;5095215;28;19925;-74
2023/07/05 11:13:53;;;;;;;;;;;;;;;24.67;100.00;97744.09;5094896;28;19925;-72
2023/07/05 11:16:20;;;;;;;;;;;;;;;24.97;100.00;97732.63;5081764;28;20397;-72
2023/07/05 11:18:47;;;;;;;;;;;;;;;23.99;100.00;97757.34;5090635;28;19921;-72
2023/07/05 11:21:32;;;;;;;;;;;;;;;23.78;100.00;97743.22;5093338;28;19991;-71
2023/07/05 11:24:00;;;;;;;;;;;;;;;23.97;100.00;97747.94;5094586;28;19935;-72
2023/07/05 11:26:34;;;;;;;;;;;;;;;23.80;100.00;97742.88;5094597;28;19988;-71
2023/07/05 11:29:01;;;;;;;;;;;;;;;24.34;100.00;97745.72;5084642;28;19963;-72
2023/07/05 11:31:46;;;;;;;;;;;;;;;23.45;100.00;97749.03;5094279;28;19924;-71
2023/07/05 11:34:31;;;;;;;;;;;;;;;23.00;100.00;97741.16;5094167;28;19928;-72
2023/07/05 11:37:13;;;;;;;;;;;;;;;23.19;100.00;97731.53;5094394;28;19932;-72
2023/07/05 11:39:41;;;;;;;;;;;;;;;23.88;100.00;97747.34;5094006;28;19929;-73
2023/07/05 11:42:26;;;;;;;;;;;;;;;24.39;100.00;97738.03;5094048;28;19947;-72
2023/07/05 11:45:14;;;;;;;;;;;;;;;24.71;100.00;97739.50;5093870;28;19952;-72
2023/07/05 11:47:47;;;;;;;;;;;;;;;23.92;100.00;97726.41;5093712;28;19924;-71
2023/07/05 11:50:14;;;;;;;;;;;;;;;24.15;100.00;97730.88;5093744;28;20285;-72
2023/07/05 11:52:43;;;;;;;;;;;;;;;24.35;100.00;97726.25;5093596;28;19924;-71
2023/07/05 11:55:13;;;;;;;;;;;;;;;24.79;100.00;97721.31;5093510;28;20027;-71
2023/07/05 11:57:43;;;;;;;;;;;;;;;24.97;100.00;97718.97;5093586;28;19968;-71
2023/07/05 12:00:14;;;;;;;;;;;;;;;25.10;100.00;97717.63;5093741;28;19925;-71
2023/07/05 12:02:46;;;;;;;;;;;;;;;25.28;100.00;97718.78;5092644;28;19924;-70
2023/07/05 12:05:14;;;;;;;;;;;;;;;24.97;100.00;97708.03;5093533;28;19929;-70
2023/07/05 12:07:42;;;;;;;;;;;;;;;24.29;100.00;97697.66;5093492;28;19963;-70
2023/07/05 12:10:16;;;;;;;;;;;;;;;23.92;100.00;97694.44;5093443;28;19951;-70
2023/07/05 12:12:42;;;;;;;;;;;;;;;23.79;100.00;97703.09;5093223;28;19936;-70
2023/07/05 12:15:10;;;;;;;;;;;;;;;24.49;100.00;97693.00;5083656;28;19968;-70
2023/07/05 12:17:38;;;;;;;;;;;;;;;24.54;100.00;97703.66;5093469;28;19968;-70
2023/07/05 12:20:07;;;;;;;;;;;;;;;24.94;100.00;97706.03;5093748;28;19924;-70
2023/07/05 12:22:34;;;;;;;;;;;;;;;24.98;100.00;97710.41;5095106;28;19970;-70
2023/07/05 12:25:00;;;;;;;;;;;;;;;25.04;100.00;97708.94;5086906;28;19932;-70
2023/07/05 12:27:29;;;;;;;;;;;;;;;24.97;100.00;97706.09;5085613;28;19956;-71
2023/07/05 12:29:57;;;;;;;;;;;;;;;24.70;100.00;97707.06;5093157;28;19960;-70
2023/07/05 12:32:25;;;;;;;;;;;;;;;24.53;100.00;97702.06;5092863;28;20294;-71
2023/07/05 12:35:13;;;;;;;;;;;;;;;24.50;100.00;97710.97;5092990;28;19928;-71
2023/07/05 12:37:40;;;;;;;;;;;;;;;24.70;100.00;97702.41;5087943;28;19947;-70
2023/07/05 12:40:27;;;;;;;;;;;;;;;24.94;100.00;97708.75;5093298;28;19935;-71
2023/07/05 12:42:56;;;;;;;;;;;;;;;24.96;100.00;97699.06;5087655;28;19985;-70
2023/07/05 12:45:25;;;;;;;;;;;;;;;24.67;100.00;97697.66;5083370;28;19924;-70
2023/07/05 12:47:51;;;;;;;;;;;;;;;24.58;100.00;97694.38;5092878;28;20028;-70
2023/07/05 12:50:19;;;;;;;;;;;;;;;24.80;100.00;97687.38;5084571;28;20008;-70